Hellin, Spain
Current Conditions -  °F | °C
As of 1:00 PM on Sunday 23 Nov 2014 (Local Time) from LEAB Reporting Station
Clear Clear  
Wind Chill: 63°   Ceiling: Unl
Heat Index: 63°   Visibility: 6mi
Dew Point: 46°   Wind: 13mph
Humidity: 55%   Direction: 130°SE
Pressure: 29.97"   Gusts: NA
Location:  38.51°N, 1.7°W
Report Text: LEAB 231200Z 13011KT CAVOK 17/08 Q1015 NOSIG
Loading
Personal Weather Stations






























Interactive Weather Map New forecast layout! Learn more

10-Day Weather Forecast

Advertisements
Track Severe Weather on mobile